臺中航空站 - ATIS

METAR RCMQ 010530Z 23008KT 9999 FEW012 SCT025 33/25 Q1004 NOSIG RMK A2967=

站台狀態:Online
最後更新:2018-08-15 05:45:01